sensor_id;sensor_type;location;lat;lon;timestamp;temperature;humidity
29663;DHT22;16578;53.266;7.920;2024-02-14T00:02:00;10.40;80.00
29663;DHT22;16578;53.266;7.920;2024-02-14T00:04:25;10.40;80.10
29663;DHT22;16578;53.266;7.920;2024-02-14T00:06:51;10.40;80.10
29663;DHT22;16578;53.266;7.920;2024-02-14T00:09:18;10.40;81.10
29663;DHT22;16578;53.266;7.920;2024-02-14T00:11:44;10.40;80.30
29663;DHT22;16578;53.266;7.920;2024-02-14T00:14:09;10.40;80.40
29663;DHT22;16578;53.266;7.920;2024-02-14T00:16:35;10.40;80.50
29663;DHT22;16578;53.266;7.920;2024-02-14T00:19:01;10.40;80.60
29663;DHT22;16578;53.266;7.920;2024-02-14T00:21:28;10.40;80.70
29663;DHT22;16578;53.266;7.920;2024-02-14T00:23:53;10.40;80.80
29663;DHT22;16578;53.266;7.920;2024-02-14T00:26:19;10.40;80.90
29663;DHT22;16578;53.266;7.920;2024-02-14T00:28:44;10.30;81.00
29663;DHT22;16578;53.266;7.920;2024-02-14T00:31:10;10.30;81.10
29663;DHT22;16578;53.266;7.920;2024-02-14T00:33:35;10.30;81.10
29663;DHT22;16578;53.266;7.920;2024-02-14T00:36:01;10.30;81.20
29663;DHT22;16578;53.266;7.920;2024-02-14T00:38:27;10.20;81.20
29663;DHT22;16578;53.266;7.920;2024-02-14T00:40:52;10.20;81.30
29663;DHT22;16578;53.266;7.920;2024-02-14T00:43:18;10.20;81.50
29663;DHT22;16578;53.266;7.920;2024-02-14T00:45:43;10.20;81.50
29663;DHT22;16578;53.266;7.920;2024-02-14T00:48:09;10.20;81.60
29663;DHT22;16578;53.266;7.920;2024-02-14T00:50:34;10.20;81.70
29663;DHT22;16578;53.266;7.920;2024-02-14T00:53:00;10.20;81.80
29663;DHT22;16578;53.266;7.920;2024-02-14T00:55:26;10.20;81.90
29663;DHT22;16578;53.266;7.920;2024-02-14T00:57:51;10.10;82.00
29663;DHT22;16578;53.266;7.920;2024-02-14T01:00:17;10.10;82.00
29663;DHT22;16578;53.266;7.920;2024-02-14T01:02:44;10.10;82.10
29663;DHT22;16578;53.266;7.920;2024-02-14T01:05:10;10.10;82.20
29663;DHT22;16578;53.266;7.920;2024-02-14T01:07:36;10.10;82.30
29663;DHT22;16578;53.266;7.920;2024-02-14T01:10:01;10.10;82.50
29663;DHT22;16578;53.266;7.920;2024-02-14T01:12:27;10.10;82.50
29663;DHT22;16578;53.266;7.920;2024-02-14T01:14:55;10.10;82.60
29663;DHT22;16578;53.266;7.920;2024-02-14T01:17:20;10.10;82.60
29663;DHT22;16578;53.266;7.920;2024-02-14T01:19:46;10.00;82.70
29663;DHT22;16578;53.266;7.920;2024-02-14T01:22:12;10.00;82.80
29663;DHT22;16578;53.266;7.920;2024-02-14T01:24:37;10.00;82.80
29663;DHT22;16578;53.266;7.920;2024-02-14T01:27:03;10.00;82.90
29663;DHT22;16578;53.266;7.920;2024-02-14T01:29:28;10.00;83.00
29663;DHT22;16578;53.266;7.920;2024-02-14T01:31:54;10.00;83.10
29663;DHT22;16578;53.266;7.920;2024-02-14T01:34:21;10.00;83.10
29663;DHT22;16578;53.266;7.920;2024-02-14T01:36:48;10.00;83.20
29663;DHT22;16578;53.266;7.920;2024-02-14T01:39:14;10.00;83.30
29663;DHT22;16578;53.266;7.920;2024-02-14T01:41:46;10.00;83.40
29663;DHT22;16578;53.266;7.920;2024-02-14T01:44:16;10.00;83.40
29663;DHT22;16578;53.266;7.920;2024-02-14T01:46:43;10.00;83.50
29663;DHT22;16578;53.266;7.920;2024-02-14T01:49:11;10.00;83.60
29663;DHT22;16578;53.266;7.920;2024-02-14T01:51:38;10.00;83.60
29663;DHT22;16578;53.266;7.920;2024-02-14T01:54:05;10.00;83.70
29663;DHT22;16578;53.266;7.920;2024-02-14T01:56:31;10.00;83.80
29663;DHT22;16578;53.266;7.920;2024-02-14T01:58:58;10.00;83.90
29663;DHT22;16578;53.266;7.920;2024-02-14T02:01:24;10.00;83.90
29663;DHT22;16578;53.266;7.920;2024-02-14T02:03:50;10.00;83.90
29663;DHT22;16578;53.266;7.920;2024-02-14T02:06:16;10.00;84.00
29663;DHT22;16578;53.266;7.920;2024-02-14T02:08:44;10.00;84.00
29663;DHT22;16578;53.266;7.920;2024-02-14T02:11:10;10.10;84.20
29663;DHT22;16578;53.266;7.920;2024-02-14T02:13:36;10.10;84.30
29663;DHT22;16578;53.266;7.920;2024-02-14T02:16:07;10.10;84.20
29663;DHT22;16578;53.266;7.920;2024-02-14T02:18:33;10.10;84.20
29663;DHT22;16578;53.266;7.920;2024-02-14T02:20:59;10.10;84.30
29663;DHT22;16578;53.266;7.920;2024-02-14T02:23:24;10.10;84.40
29663;DHT22;16578;53.266;7.920;2024-02-14T02:25:50;10.00;84.40
29663;DHT22;16578;53.266;7.920;2024-02-14T02:28:16;10.10;85.50
29663;DHT22;16578;53.266;7.920;2024-02-14T02:30:42;10.10;84.60
29663;DHT22;16578;53.266;7.920;2024-02-14T02:33:08;10.10;84.70
29663;DHT22;16578;53.266;7.920;2024-02-14T02:35:34;10.10;84.70
29663;DHT22;16578;53.266;7.920;2024-02-14T02:38:00;10.10;84.70
29663;DHT22;16578;53.266;7.920;2024-02-14T02:40:26;10.10;84.90
29663;DHT22;16578;53.266;7.920;2024-02-14T02:42:53;10.20;84.90
29663;DHT22;16578;53.266;7.920;2024-02-14T02:45:19;10.20;85.00
29663;DHT22;16578;53.266;7.920;2024-02-14T02:47:45;10.20;85.00
29663;DHT22;16578;53.266;7.920;2024-02-14T02:50:10;10.20;85.80
29663;DHT22;16578;53.266;7.920;2024-02-14T02:52:36;10.20;85.20
29663;DHT22;16578;53.266;7.920;2024-02-14T02:55:03;10.20;85.00
29663;DHT22;16578;53.266;7.920;2024-02-14T02:57:30;10.20;85.00
29663;DHT22;16578;53.266;7.920;2024-02-14T02:59:57;10.20;85.00
29663;DHT22;16578;53.266;7.920;2024-02-14T03:02:23;10.20;85.00
29663;DHT22;16578;53.266;7.920;2024-02-14T03:04:50;10.30;85.20
29663;DHT22;16578;53.266;7.920;2024-02-14T03:07:16;10.30;85.20
29663;DHT22;16578;53.266;7.920;2024-02-14T03:09:42;10.30;85.30
29663;DHT22;16578;53.266;7.920;2024-02-14T03:12:07;10.30;85.30
29663;DHT22;16578;53.266;7.920;2024-02-14T03:14:34;10.30;85.20
29663;DHT22;16578;53.266;7.920;2024-02-14T03:17:04;10.30;85.30
29663;DHT22;16578;53.266;7.920;2024-02-14T03:19:30;10.30;85.30
29663;DHT22;16578;53.266;7.920;2024-02-14T03:21:56;10.40;85.50
29663;DHT22;16578;53.266;7.920;2024-02-14T03:24:22;10.30;85.30
29663;DHT22;16578;53.266;7.920;2024-02-14T03:26:48;10.40;85.40
29663;DHT22;16578;53.266;7.920;2024-02-14T03:29:16;10.40;85.40
29663;DHT22;16578;53.266;7.920;2024-02-14T03:31:42;10.40;85.40
29663;DHT22;16578;53.266;7.920;2024-02-14T03:34:09;10.40;85.50
29663;DHT22;16578;53.266;7.920;2024-02-14T03:36:37;10.40;85.50
29663;DHT22;16578;53.266;7.920;2024-02-14T03:39:03;10.40;85.60
29663;DHT22;16578;53.266;7.920;2024-02-14T03:41:30;10.50;85.60
29663;DHT22;16578;53.266;7.920;2024-02-14T03:43:56;10.50;85.70
29663;DHT22;16578;53.266;7.920;2024-02-14T03:46:26;10.50;85.60
29663;DHT22;16578;53.266;7.920;2024-02-14T03:48:52;10.60;85.70
29663;DHT22;16578;53.266;7.920;2024-02-14T03:51:18;10.60;86.50
29663;DHT22;16578;53.266;7.920;2024-02-14T03:53:45;10.60;86.50
29663;DHT22;16578;53.266;7.920;2024-02-14T03:56:10;10.60;85.60
29663;DHT22;16578;53.266;7.920;2024-02-14T03:58:38;10.60;85.60
29663;DHT22;16578;53.266;7.920;2024-02-14T04:01:04;10.60;85.70
29663;DHT22;16578;53.266;7.920;2024-02-14T04:03:30;10.60;85.60
29663;DHT22;16578;53.266;7.920;2024-02-14T04:05:56;10.70;85.60
29663;DHT22;16578;53.266;7.920;2024-02-14T04:08:21;10.70;85.70
29663;DHT22;16578;53.266;7.920;2024-02-14T04:10:47;10.70;85.80
29663;DHT22;16578;53.266;7.920;2024-02-14T04:13:16;10.70;85.80
29663;DHT22;16578;53.266;7.920;2024-02-14T04:15:41;10.70;85.70
29663;DHT22;16578;53.266;7.920;2024-02-14T04:18:08;10.70;85.60
29663;DHT22;16578;53.266;7.920;2024-02-14T04:20:34;10.70;85.70
29663;DHT22;16578;53.266;7.920;2024-02-14T04:23:00;10.70;85.80
29663;DHT22;16578;53.266;7.920;2024-02-14T04:25:25;10.70;85.80
29663;DHT22;16578;53.266;7.920;2024-02-14T04:27:51;10.80;85.90
29663;DHT22;16578;53.266;7.920;2024-02-14T04:30:16;10.70;85.90
29663;DHT22;16578;53.266;7.920;2024-02-14T04:32:42;10.80;85.90
29663;DHT22;16578;53.266;7.920;2024-02-14T04:35:09;10.80;86.00
29663;DHT22;16578;53.266;7.920;2024-02-14T04:37:34;10.80;86.10
29663;DHT22;16578;53.266;7.920;2024-02-14T04:40:00;10.80;86.10
29663;DHT22;16578;53.266;7.920;2024-02-14T04:42:26;10.80;86.20
29663;DHT22;16578;53.266;7.920;2024-02-14T04:44:52;10.90;86.20
29663;DHT22;16578;53.266;7.920;2024-02-14T04:47:17;10.90;86.10
29663;DHT22;16578;53.266;7.920;2024-02-14T04:49:43;10.90;86.10
29663;DHT22;16578;53.266;7.920;2024-02-14T04:52:08;10.90;86.20
29663;DHT22;16578;53.266;7.920;2024-02-14T04:54:34;10.90;86.20
29663;DHT22;16578;53.266;7.920;2024-02-14T04:57:00;10.90;86.20
29663;DHT22;16578;53.266;7.920;2024-02-14T04:59:25;10.90;86.20
29663;DHT22;16578;53.266;7.920;2024-02-14T05:01:51;10.90;86.20
29663;DHT22;16578;53.266;7.920;2024-02-14T05:04:18;10.90;86.30
29663;DHT22;16578;53.266;7.920;2024-02-14T05:06:44;11.00;86.30
29663;DHT22;16578;53.266;7.920;2024-02-14T05:09:10;11.00;86.40
29663;DHT22;16578;53.266;7.920;2024-02-14T05:11:36;11.00;86.50
29663;DHT22;16578;53.266;7.920;2024-02-14T05:14:02;11.00;86.50
29663;DHT22;16578;53.266;7.920;2024-02-14T05:16:27;11.10;86.60
29663;DHT22;16578;53.266;7.920;2024-02-14T05:18:53;11.10;86.60
29663;DHT22;16578;53.266;7.920;2024-02-14T05:21:22;11.10;86.60
29663;DHT22;16578;53.266;7.920;2024-02-14T05:23:48;11.10;86.60
29663;DHT22;16578;53.266;7.920;2024-02-14T05:26:13;11.20;86.60
29663;DHT22;16578;53.266;7.920;2024-02-14T05:28:39;11.20;86.70
29663;DHT22;16578;53.266;7.920;2024-02-14T05:31:05;11.20;86.60
29663;DHT22;16578;53.266;7.920;2024-02-14T05:33:31;11.20;86.60
29663;DHT22;16578;53.266;7.920;2024-02-14T05:35:56;11.20;86.60
29663;DHT22;16578;53.266;7.920;2024-02-14T05:38:22;11.30;86.70
29663;DHT22;16578;53.266;7.920;2024-02-14T05:40:48;11.30;86.70
29663;DHT22;16578;53.266;7.920;2024-02-14T05:43:15;11.30;86.70
29663;DHT22;16578;53.266;7.920;2024-02-14T05:45:41;11.30;86.80
29663;DHT22;16578;53.266;7.920;2024-02-14T05:48:07;11.40;86.80
29663;DHT22;16578;53.266;7.920;2024-02-14T05:50:33;11.40;86.80
29663;DHT22;16578;53.266;7.920;2024-02-14T05:52:59;11.40;86.80
29663;DHT22;16578;53.266;7.920;2024-02-14T05:55:25;11.50;86.80
29663;DHT22;16578;53.266;7.920;2024-02-14T05:57:51;11.50;86.90
29663;DHT22;16578;53.266;7.920;2024-02-14T06:00:20;11.50;87.00
29663;DHT22;16578;53.266;7.920;2024-02-14T06:02:49;11.50;87.00
29663;DHT22;16578;53.266;7.920;2024-02-14T06:05:15;11.60;87.10
29663;DHT22;16578;53.266;7.920;2024-02-14T06:07:41;11.50;87.40
29663;DHT22;16578;53.266;7.920;2024-02-14T06:10:08;11.60;87.00
29663;DHT22;16578;53.266;7.920;2024-02-14T06:12:34;11.60;87.00
29663;DHT22;16578;53.266;7.920;2024-02-14T06:15:01;11.70;87.10
29663;DHT22;16578;53.266;7.920;2024-02-14T06:17:27;11.70;87.10
29663;DHT22;16578;53.266;7.920;2024-02-14T06:19:53;11.70;87.20
29663;DHT22;16578;53.266;7.920;2024-02-14T06:22:18;11.80;87.20
29663;DHT22;16578;53.266;7.920;2024-02-14T06:24:44;11.80;87.20
29663;DHT22;16578;53.266;7.920;2024-02-14T06:27:10;11.80;87.20
29663;DHT22;16578;53.266;7.920;2024-02-14T06:29:36;11.90;87.30
29663;DHT22;16578;53.266;7.920;2024-02-14T06:32:01;11.90;87.20
29663;DHT22;16578;53.266;7.920;2024-02-14T06:34:27;11.90;87.20
29663;DHT22;16578;53.266;7.920;2024-02-14T06:36:54;11.90;87.20
29663;DHT22;16578;53.266;7.920;2024-02-14T06:39:19;11.90;87.20
29663;DHT22;16578;53.266;7.920;2024-02-14T06:41:46;12.00;87.20
29663;DHT22;16578;53.266;7.920;2024-02-14T06:44:12;12.00;87.20
29663;DHT22;16578;53.266;7.920;2024-02-14T06:46:38;12.00;87.20
29663;DHT22;16578;53.266;7.920;2024-02-14T06:49:04;12.10;87.30
29663;DHT22;16578;53.266;7.920;2024-02-14T06:51:30;12.10;87.30
29663;DHT22;16578;53.266;7.920;2024-02-14T06:53:56;12.10;87.30
29663;DHT22;16578;53.266;7.920;2024-02-14T06:56:22;12.10;87.30
29663;DHT22;16578;53.266;7.920;2024-02-14T06:58:47;12.20;87.30
29663;DHT22;16578;53.266;7.920;2024-02-14T07:01:18;12.20;87.40
29663;DHT22;16578;53.266;7.920;2024-02-14T07:03:47;12.20;87.40
29663;DHT22;16578;53.266;7.920;2024-02-14T07:06:13;12.20;87.30
29663;DHT22;16578;53.266;7.920;2024-02-14T07:08:42;12.30;87.40
29663;DHT22;16578;53.266;7.920;2024-02-14T07:11:07;12.30;87.40
29663;DHT22;16578;53.266;7.920;2024-02-14T07:13:33;12.30;87.50
29663;DHT22;16578;53.266;7.920;2024-02-14T07:15:58;12.30;87.40
29663;DHT22;16578;53.266;7.920;2024-02-14T07:18:24;12.30;87.50
29663;DHT22;16578;53.266;7.920;2024-02-14T07:20:49;12.40;87.60
29663;DHT22;16578;53.266;7.920;2024-02-14T07:23:16;12.40;87.60
29663;DHT22;16578;53.266;7.920;2024-02-14T07:25:41;12.40;87.60
29663;DHT22;16578;53.266;7.920;2024-02-14T07:28:07;12.40;87.60
29663;DHT22;16578;53.266;7.920;2024-02-14T07:30:32;12.50;87.70
29663;DHT22;16578;53.266;7.920;2024-02-14T07:32:58;12.50;87.60
29663;DHT22;16578;53.266;7.920;2024-02-14T07:35:24;12.50;87.70
29663;DHT22;16578;53.266;7.920;2024-02-14T07:37:49;12.50;87.70
29663;DHT22;16578;53.266;7.920;2024-02-14T07:40:15;12.60;87.70
29663;DHT22;16578;53.266;7.920;2024-02-14T07:42:40;12.60;87.70
29663;DHT22;16578;53.266;7.920;2024-02-14T07:45:06;12.60;87.70
29663;DHT22;16578;53.266;7.920;2024-02-14T07:47:32;12.60;87.80
29663;DHT22;16578;53.266;7.920;2024-02-14T07:49:58;12.70;87.80
29663;DHT22;16578;53.266;7.920;2024-02-14T07:52:23;12.70;87.70
29663;DHT22;16578;53.266;7.920;2024-02-14T07:54:53;12.70;87.70
29663;DHT22;16578;53.266;7.920;2024-02-14T07:57:20;12.70;87.70
29663;DHT22;16578;53.266;7.920;2024-02-14T07:59:45;12.80;87.90
29663;DHT22;16578;53.266;7.920;2024-02-14T08:02:11;12.80;87.90
29663;DHT22;16578;53.266;7.920;2024-02-14T08:04:36;12.80;87.90
29663;DHT22;16578;53.266;7.920;2024-02-14T08:07:02;12.80;87.90
29663;DHT22;16578;53.266;7.920;2024-02-14T08:09:29;12.90;88.00
29663;DHT22;16578;53.266;7.920;2024-02-14T08:11:55;12.90;88.00
29663;DHT22;16578;53.266;7.920;2024-02-14T08:14:20;12.90;88.00
29663;DHT22;16578;53.266;7.920;2024-02-14T08:16:46;13.00;88.00
29663;DHT22;16578;53.266;7.920;2024-02-14T08:19:11;13.00;88.00
29663;DHT22;16578;53.266;7.920;2024-02-14T08:21:37;13.00;87.90
29663;DHT22;16578;53.266;7.920;2024-02-14T08:24:03;13.10;88.10
29663;DHT22;16578;53.266;7.920;2024-02-14T08:26:28;13.10;88.00
29663;DHT22;16578;53.266;7.920;2024-02-14T08:28:54;13.10;88.00
29663;DHT22;16578;53.266;7.920;2024-02-14T08:31:20;13.10;88.00
29663;DHT22;16578;53.266;7.920;2024-02-14T08:33:45;13.20;88.10
29663;DHT22;16578;53.266;7.920;2024-02-14T08:36:11;13.20;88.10
29663;DHT22;16578;53.266;7.920;2024-02-14T08:38:36;13.20;88.10
29663;DHT22;16578;53.266;7.920;2024-02-14T08:41:02;13.20;88.10
29663;DHT22;16578;53.266;7.920;2024-02-14T08:43:28;13.20;88.10
29663;DHT22;16578;53.266;7.920;2024-02-14T08:45:55;13.30;88.10
29663;DHT22;16578;53.266;7.920;2024-02-14T08:48:21;13.30;88.10
29663;DHT22;16578;53.266;7.920;2024-02-14T08:50:47;13.30;88.10
29663;DHT22;16578;53.266;7.920;2024-02-14T08:53:13;13.40;88.10
29663;DHT22;16578;53.266;7.920;2024-02-14T08:55:40;13.40;88.20
29663;DHT22;16578;53.266;7.920;2024-02-14T08:58:06;13.40;88.10
29663;DHT22;16578;53.266;7.920;2024-02-14T09:00:32;13.40;88.10
29663;DHT22;16578;53.266;7.920;2024-02-14T09:03:00;13.50;88.10
29663;DHT22;16578;53.266;7.920;2024-02-14T09:05:26;13.50;88.00
29663;DHT22;16578;53.266;7.920;2024-02-14T09:07:53;13.50;88.00
29663;DHT22;16578;53.266;7.920;2024-02-14T09:10:19;13.50;88.00
29663;DHT22;16578;53.266;7.920;2024-02-14T09:12:45;13.50;88.00
29663;DHT22;16578;53.266;7.920;2024-02-14T09:15:10;13.60;88.10
29663;DHT22;16578;53.266;7.920;2024-02-14T09:17:37;13.60;88.10
29663;DHT22;16578;53.266;7.920;2024-02-14T09:20:06;13.60;88.10
29663;DHT22;16578;53.266;7.920;2024-02-14T09:22:35;13.60;88.00
29663;DHT22;16578;53.266;7.920;2024-02-14T09:25:02;13.60;88.00
29663;DHT22;16578;53.266;7.920;2024-02-14T09:27:31;13.60;88.10
29663;DHT22;16578;53.266;7.920;2024-02-14T09:29:58;13.60;88.00
29663;DHT22;16578;53.266;7.920;2024-02-14T09:32:24;13.70;88.10
29663;DHT22;16578;53.266;7.920;2024-02-14T09:34:50;13.70;88.10
29663;DHT22;16578;53.266;7.920;2024-02-14T09:37:16;13.70;88.10
29663;DHT22;16578;53.266;7.920;2024-02-14T09:39:42;13.70;88.00
29663;DHT22;16578;53.266;7.920;2024-02-14T09:42:11;13.70;88.10
29663;DHT22;16578;53.266;7.920;2024-02-14T09:44:40;13.70;88.10
29663;DHT22;16578;53.266;7.920;2024-02-14T09:47:06;13.80;88.10
29663;DHT22;16578;53.266;7.920;2024-02-14T09:49:35;13.80;88.20
29663;DHT22;16578;53.266;7.920;2024-02-14T09:52:01;13.80;88.30
29663;DHT22;16578;53.266;7.920;2024-02-14T09:54:29;13.80;88.30
29663;DHT22;16578;53.266;7.920;2024-02-14T09:56:57;13.90;88.20
29663;DHT22;16578;53.266;7.920;2024-02-14T09:59:24;13.90;88.20
29663;DHT22;16578;53.266;7.920;2024-02-14T10:01:49;13.90;88.20
29663;DHT22;16578;53.266;7.920;2024-02-14T10:04:16;13.90;88.20
29663;DHT22;16578;53.266;7.920;2024-02-14T10:06:44;14.00;88.20
29663;DHT22;16578;53.266;7.920;2024-02-14T10:09:10;14.00;88.20
29663;DHT22;16578;53.266;7.920;2024-02-14T10:11:36;14.00;88.20
29663;DHT22;16578;53.266;7.920;2024-02-14T10:14:04;14.00;88.20
29663;DHT22;16578;53.266;7.920;2024-02-14T10:16:29;14.00;88.20
29663;DHT22;16578;53.266;7.920;2024-02-14T10:18:55;14.00;88.20
29663;DHT22;16578;53.266;7.920;2024-02-14T10:21:21;14.10;88.40
29663;DHT22;16578;53.266;7.920;2024-02-14T10:23:49;14.10;88.30
29663;DHT22;16578;53.266;7.920;2024-02-14T10:26:17;14.10;88.40
29663;DHT22;16578;53.266;7.920;2024-02-14T10:28:43;14.20;88.40
29663;DHT22;16578;53.266;7.920;2024-02-14T10:31:12;14.20;88.40
29663;DHT22;16578;53.266;7.920;2024-02-14T10:33:38;14.20;88.40
29663;DHT22;16578;53.266;7.920;2024-02-14T10:36:07;14.20;88.30
29663;DHT22;16578;53.266;7.920;2024-02-14T10:38:34;14.30;88.30
29663;DHT22;16578;53.266;7.920;2024-02-14T10:41:01;14.30;88.20
29663;DHT22;16578;53.266;7.920;2024-02-14T10:43:27;14.30;88.20
29663;DHT22;16578;53.266;7.920;2024-02-14T10:45:54;14.30;88.20
29663;DHT22;16578;53.266;7.920;2024-02-14T10:48:22;14.30;88.10
29663;DHT22;16578;53.266;7.920;2024-02-14T10:50:54;14.30;88.10
29663;DHT22;16578;53.266;7.920;2024-02-14T10:53:22;14.40;88.20
29663;DHT22;16578;53.266;7.920;2024-02-14T10:55:51;14.40;88.30
29663;DHT22;16578;53.266;7.920;2024-02-14T10:58:18;14.40;88.30
29663;DHT22;16578;53.266;7.920;2024-02-14T11:00:45;14.40;88.30
29663;DHT22;16578;53.266;7.920;2024-02-14T11:03:11;14.40;88.30
29663;DHT22;16578;53.266;7.920;2024-02-14T11:05:46;14.50;88.50
29663;DHT22;16578;53.266;7.920;2024-02-14T11:08:18;14.50;88.40
29663;DHT22;16578;53.266;7.920;2024-02-14T11:10:53;14.50;88.30
29663;DHT22;16578;53.266;7.920;2024-02-14T11:13:20;14.50;88.10
29663;DHT22;16578;53.266;7.920;2024-02-14T11:15:47;14.50;88.10
29663;DHT22;16578;53.266;7.920;2024-02-14T11:18:12;14.60;88.10
29663;DHT22;16578;53.266;7.920;2024-02-14T11:20:38;14.60;88.00
29663;DHT22;16578;53.266;7.920;2024-02-14T11:23:07;14.60;88.00
29663;DHT22;16578;53.266;7.920;2024-02-14T11:25:37;14.60;88.20
29663;DHT22;16578;53.266;7.920;2024-02-14T11:28:18;14.50;88.10
29663;DHT22;16578;53.266;7.920;2024-02-14T11:30:45;14.60;88.10
29663;DHT22;16578;53.266;7.920;2024-02-14T11:33:22;14.60;88.20
29663;DHT22;16578;53.266;7.920;2024-02-14T11:35:50;14.60;88.10
29663;DHT22;16578;53.266;7.920;2024-02-14T11:38:17;14.60;88.00
29663;DHT22;16578;53.266;7.920;2024-02-14T11:40:43;14.60;88.00
29663;DHT22;16578;53.266;7.920;2024-02-14T11:43:19;14.60;87.90
29663;DHT22;16578;53.266;7.920;2024-02-14T11:45:46;14.60;87.90
29663;DHT22;16578;53.266;7.920;2024-02-14T11:48:15;14.60;87.90
29663;DHT22;16578;53.266;7.920;2024-02-14T11:50:43;14.60;87.80
29663;DHT22;16578;53.266;7.920;2024-02-14T11:53:11;14.60;87.80
29663;DHT22;16578;53.266;7.920;2024-02-14T11:55:37;14.60;87.80
29663;DHT22;16578;53.266;7.920;2024-02-14T11:58:14;14.60;87.80
29663;DHT22;16578;53.266;7.920;2024-02-14T12:00:45;14.60;87.90
29663;DHT22;16578;53.266;7.920;2024-02-14T12:03:19;14.50;87.90
29663;DHT22;16578;53.266;7.920;2024-02-14T12:05:46;14.60;88.00
29663;DHT22;16578;53.266;7.920;2024-02-14T12:08:13;14.60;88.00
29663;DHT22;16578;53.266;7.920;2024-02-14T12:10:39;14.50;88.00
29663;DHT22;16578;53.266;7.920;2024-02-14T12:13:11;14.60;88.10
29663;DHT22;16578;53.266;7.920;2024-02-14T12:15:38;14.50;88.40
29663;DHT22;16578;53.266;7.920;2024-02-14T12:18:05;14.60;88.20
29663;DHT22;16578;53.266;7.920;2024-02-14T12:20:30;14.60;89.00
29663;DHT22;16578;53.266;7.920;2024-02-14T12:22:56;14.60;88.20
29663;DHT22;16578;53.266;7.920;2024-02-14T12:25:22;14.60;88.20
29663;DHT22;16578;53.266;7.920;2024-02-14T12:27:51;14.60;88.30
29663;DHT22;16578;53.266;7.920;2024-02-14T12:30:18;14.70;88.40
29663;DHT22;16578;53.266;7.920;2024-02-14T12:32:45;14.70;88.50
29663;DHT22;16578;53.266;7.920;2024-02-14T12:35:11;14.70;88.50
29663;DHT22;16578;53.266;7.920;2024-02-14T12:37:37;14.70;88.60
29663;DHT22;16578;53.266;7.920;2024-02-14T12:40:04;14.80;88.60
29663;DHT22;16578;53.266;7.920;2024-02-14T12:42:31;14.80;88.40
29663;DHT22;16578;53.266;7.920;2024-02-14T12:44:57;14.80;88.40
29663;DHT22;16578;53.266;7.920;2024-02-14T12:47:23;14.80;88.40
29663;DHT22;16578;53.266;7.920;2024-02-14T12:49:50;14.90;88.30
29663;DHT22;16578;53.266;7.920;2024-02-14T12:52:16;14.90;88.20
29663;DHT22;16578;53.266;7.920;2024-02-14T12:54:43;14.80;88.10
29663;DHT22;16578;53.266;7.920;2024-02-14T12:57:08;14.80;88.10
29663;DHT22;16578;53.266;7.920;2024-02-14T12:59:34;14.90;88.20
29663;DHT22;16578;53.266;7.920;2024-02-14T13:02:00;14.80;88.00
29663;DHT22;16578;53.266;7.920;2024-02-14T13:04:26;14.90;88.10
29663;DHT22;16578;53.266;7.920;2024-02-14T13:06:51;14.90;88.10
29663;DHT22;16578;53.266;7.920;2024-02-14T13:09:17;14.90;88.10
29663;DHT22;16578;53.266;7.920;2024-02-14T13:11:43;14.90;88.00
29663;DHT22;16578;53.266;7.920;2024-02-14T13:14:08;14.90;88.00
29663;DHT22;16578;53.266;7.920;2024-02-14T13:16:34;14.90;88.10
29663;DHT22;16578;53.266;7.920;2024-02-14T13:19:00;14.90;88.10
29663;DHT22;16578;53.266;7.920;2024-02-14T13:21:26;14.90;88.10
29663;DHT22;16578;53.266;7.920;2024-02-14T13:23:51;14.90;88.10
29663;DHT22;16578;53.266;7.920;2024-02-14T13:26:17;14.90;88.10
29663;DHT22;16578;53.266;7.920;2024-02-14T13:28:43;14.90;88.10
29663;DHT22;16578;53.266;7.920;2024-02-14T13:31:08;14.90;89.10
29663;DHT22;16578;53.266;7.920;2024-02-14T13:33:35;14.90;88.20
29663;DHT22;16578;53.266;7.920;2024-02-14T13:36:01;14.90;88.20
29663;DHT22;16578;53.266;7.920;2024-02-14T13:38:27;14.90;88.20
29663;DHT22;16578;53.266;7.920;2024-02-14T13:40:52;14.90;88.10
29663;DHT22;16578;53.266;7.920;2024-02-14T13:43:18;15.00;88.20
29663;DHT22;16578;53.266;7.920;2024-02-14T13:45:44;15.00;88.20
29663;DHT22;16578;53.266;7.920;2024-02-14T13:48:11;15.00;88.10
29663;DHT22;16578;53.266;7.920;2024-02-14T13:50:37;15.00;88.20
29663;DHT22;16578;53.266;7.920;2024-02-14T13:53:04;15.00;88.20
29663;DHT22;16578;53.266;7.920;2024-02-14T13:55:29;15.00;88.20
29663;DHT22;16578;53.266;7.920;2024-02-14T13:57:55;15.00;88.20
29663;DHT22;16578;53.266;7.920;2024-02-14T14:00:20;15.00;88.20
29663;DHT22;16578;53.266;7.920;2024-02-14T14:02:46;15.00;88.20
29663;DHT22;16578;53.266;7.920;2024-02-14T14:05:12;15.00;88.20
29663;DHT22;16578;53.266;7.920;2024-02-14T14:07:38;15.00;88.30
29663;DHT22;16578;53.266;7.920;2024-02-14T14:10:08;15.00;88.40
29663;DHT22;16578;53.266;7.920;2024-02-14T14:12:34;15.00;88.40
29663;DHT22;16578;53.266;7.920;2024-02-14T14:15:01;15.00;88.50
29663;DHT22;16578;53.266;7.920;2024-02-14T14:17:27;15.10;88.40
29663;DHT22;16578;53.266;7.920;2024-02-14T14:19:53;15.10;88.30
29663;DHT22;16578;53.266;7.920;2024-02-14T14:22:19;15.10;88.30
29663;DHT22;16578;53.266;7.920;2024-02-14T14:24:44;15.10;88.30
29663;DHT22;16578;53.266;7.920;2024-02-14T14:27:10;15.10;88.20
29663;DHT22;16578;53.266;7.920;2024-02-14T14:29:43;15.10;88.30
29663;DHT22;16578;53.266;7.920;2024-02-14T14:32:09;15.10;88.10
29663;DHT22;16578;53.266;7.920;2024-02-14T14:34:35;15.10;88.20
29663;DHT22;16578;53.266;7.920;2024-02-14T14:37:01;15.00;88.00
29663;DHT22;16578;53.266;7.920;2024-02-14T14:39:27;15.00;88.00
29663;DHT22;16578;53.266;7.920;2024-02-14T14:41:52;15.10;88.10
29663;DHT22;16578;53.266;7.920;2024-02-14T14:44:24;15.10;88.10
29663;DHT22;16578;53.266;7.920;2024-02-14T14:46:50;15.00;88.10
29663;DHT22;16578;53.266;7.920;2024-02-14T14:49:16;15.10;88.10
29663;DHT22;16578;53.266;7.920;2024-02-14T14:51:42;15.10;88.10
29663;DHT22;16578;53.266;7.920;2024-02-14T14:54:07;15.00;88.00
29663;DHT22;16578;53.266;7.920;2024-02-14T14:56:33;15.00;88.00
29663;DHT22;16578;53.266;7.920;2024-02-14T14:58:59;15.00;88.00
29663;DHT22;16578;53.266;7.920;2024-02-14T15:01:31;15.00;87.90
29663;DHT22;16578;53.266;7.920;2024-02-14T15:03:59;15.00;88.00
29663;DHT22;16578;53.266;7.920;2024-02-14T15:06:25;15.00;88.00
29663;DHT22;16578;53.266;7.920;2024-02-14T15:08:50;15.00;88.00
29663;DHT22;16578;53.266;7.920;2024-02-14T15:11:16;15.00;88.10
29663;DHT22;16578;53.266;7.920;2024-02-14T15:13:43;14.90;88.10
29663;DHT22;16578;53.266;7.920;2024-02-14T15:16:10;15.00;88.20
29663;DHT22;16578;53.266;7.920;2024-02-14T15:18:35;14.90;88.20
29663;DHT22;16578;53.266;7.920;2024-02-14T15:21:01;15.00;88.20
29663;DHT22;16578;53.266;7.920;2024-02-14T15:23:28;14.90;88.10
29663;DHT22;16578;53.266;7.920;2024-02-14T15:25:53;14.90;88.10